createdAt,value
2017-10-30T00:00:51.273Z,7.02
2017-10-30T00:01:51.267Z,7.07
2017-10-30T00:02:51.262Z,7.00
2017-10-30T00:03:51.255Z,7.10
2017-10-30T00:04:51.251Z,7.07
2017-10-30T00:05:51.245Z,7.07
2017-10-30T00:06:51.240Z,7.11
2017-10-30T00:07:51.233Z,6.93
2017-10-30T00:08:51.226Z,7.10
2017-10-30T00:09:51.221Z,7.02
2017-10-30T00:10:51.217Z,7.13
2017-10-30T00:11:51.212Z,7.13
2017-10-30T00:12:51.205Z,7.10
2017-10-30T00:13:51.200Z,7.03
2017-10-30T00:14:51.193Z,7.03
2017-10-30T00:15:51.187Z,7.06
2017-10-30T00:16:51.182Z,7.03
2017-10-30T00:17:51.176Z,7.02
2017-10-30T00:18:51.168Z,7.02
2017-10-30T00:19:51.165Z,6.92
2017-10-30T00:20:51.158Z,7.03
2017-10-30T00:21:51.152Z,6.93
2017-10-30T00:22:51.147Z,6.95
2017-10-30T00:23:51.141Z,7.02
2017-10-30T00:24:51.133Z,6.96
2017-10-30T00:25:51.129Z,6.92
2017-10-30T00:26:51.123Z,6.97
2017-10-30T00:27:51.117Z,6.92
2017-10-30T00:28:51.113Z,6.81
2017-10-30T00:29:51.107Z,6.82
2017-10-30T00:30:51.100Z,6.79
2017-10-30T00:31:51.105Z,6.79
2017-10-30T00:32:51.088Z,6.82
2017-10-30T00:33:51.082Z,6.82
2017-10-30T00:34:51.077Z,6.75
2017-10-30T00:35:51.072Z,6.70
2017-10-30T00:36:51.065Z,6.77
2017-10-30T00:37:51.058Z,6.75
2017-10-30T00:38:51.054Z,6.77
2017-10-30T00:39:51.048Z,6.78
2017-10-30T00:40:51.048Z,6.75
2017-10-30T00:41:51.037Z,6.77
2017-10-30T00:42:51.030Z,6.79
2017-10-30T00:43:51.026Z,6.72
2017-10-30T00:44:51.021Z,6.78
2017-10-30T00:45:51.016Z,6.78
2017-10-30T00:46:51.009Z,6.74
2017-10-30T00:47:51.005Z,6.84
2017-10-30T00:48:50.995Z,6.84
2017-10-30T00:49:50.988Z,6.84
2017-10-30T00:50:50.983Z,6.77
2017-10-30T00:51:50.979Z,6.84
2017-10-30T00:52:50.971Z,6.72
2017-10-30T00:53:50.966Z,6.72
2017-10-30T00:54:50.960Z,6.85
2017-10-30T00:55:50.954Z,6.85
2017-10-30T00:56:50.947Z,6.82
2017-10-30T00:57:50.942Z,6.79
2017-10-30T00:58:50.936Z,6.82
2017-10-30T00:59:50.929Z,6.85
2017-10-30T01:00:50.931Z,6.81
2017-10-30T01:01:50.918Z,6.74
2017-10-30T01:02:50.913Z,6.75
2017-10-30T01:03:50.907Z,6.75
2017-10-30T01:04:50.921Z,6.67
2017-10-30T01:05:50.895Z,6.66
2017-10-30T01:06:50.896Z,6.70
2017-10-30T01:07:50.886Z,6.62
2017-10-30T01:08:50.878Z,6.64
2017-10-30T01:09:50.870Z,6.62
2017-10-30T01:10:50.866Z,6.67
2017-10-30T01:11:50.860Z,6.60
2017-10-30T01:12:50.853Z,6.67
2017-10-30T01:13:50.846Z,6.63
2017-10-30T01:14:50.846Z,6.59
2017-10-30T01:15:50.836Z,6.72
2017-10-30T01:16:50.828Z,6.64
2017-10-30T01:17:50.822Z,6.69
2017-10-30T01:18:50.818Z,6.67
2017-10-30T01:19:50.811Z,6.66
2017-10-30T01:20:50.804Z,6.72
2017-10-30T01:21:50.799Z,6.59
2017-10-30T01:22:50.794Z,6.64
2017-10-30T01:23:50.788Z,6.57
2017-10-30T01:24:50.781Z,6.56
2017-10-30T01:25:50.776Z,6.57
2017-10-30T01:26:50.770Z,6.57
2017-10-30T01:27:50.770Z,6.54
2017-10-30T01:28:50.758Z,6.56
2017-10-30T01:29:50.750Z,6.57
2017-10-30T01:30:50.746Z,6.48
2017-10-30T01:31:50.741Z,6.51
2017-10-30T01:32:50.733Z,6.60
2017-10-30T01:33:50.729Z,6.62
2017-10-30T01:34:50.722Z,6.51
2017-10-30T01:35:50.716Z,6.52
2017-10-30T01:36:50.709Z,6.48
2017-10-30T01:37:50.703Z,6.56
2017-10-30T01:38:50.697Z,6.48
2017-10-30T01:39:50.692Z,6.41
2017-10-30T01:40:50.686Z,6.38
2017-10-30T01:41:50.679Z,6.38
2017-10-30T01:42:50.673Z,6.44
2017-10-30T01:43:50.667Z,6.41
2017-10-30T01:44:50.662Z,6.35
2017-10-30T01:45:50.656Z,6.38
2017-10-30T01:46:50.649Z,6.38
2017-10-30T01:47:50.645Z,6.46
2017-10-30T01:48:50.638Z,6.45
2017-10-30T01:49:50.631Z,6.41
2017-10-30T01:50:50.626Z,6.48
2017-10-30T01:51:50.620Z,6.38
2017-10-30T01:52:50.613Z,6.39
2017-10-30T01:53:50.607Z,6.35
2017-10-30T01:54:50.602Z,6.24
2017-10-30T01:55:50.596Z,6.28
2017-10-30T01:56:50.589Z,6.30
2017-10-30T01:57:50.583Z,6.30
2017-10-30T01:58:50.577Z,6.36
2017-10-30T01:59:50.573Z,6.26
2017-10-30T02:00:50.565Z,6.26
2017-10-30T02:01:50.559Z,6.36
2017-10-30T02:02:50.553Z,6.28
2017-10-30T02:03:50.546Z,6.30
2017-10-30T02:04:50.540Z,6.24
2017-10-30T02:05:50.533Z,6.26
2017-10-30T02:06:50.531Z,6.28
2017-10-30T02:07:50.521Z,6.20
2017-10-30T02:08:50.515Z,6.19
2017-10-30T02:09:50.509Z,6.28
2017-10-30T02:10:50.503Z,6.19
2017-10-30T02:11:50.499Z,6.12
2017-10-30T02:12:50.491Z,6.16
2017-10-30T02:13:50.485Z,6.20
2017-10-30T02:14:50.499Z,6.27
2017-10-30T02:15:50.473Z,6.27
2017-10-30T02:16:50.466Z,6.20
2017-10-30T02:17:50.462Z,6.26
2017-10-30T02:18:50.455Z,6.24
2017-10-30T02:19:50.448Z,6.26
2017-10-30T02:20:50.440Z,6.14
2017-10-30T02:21:50.436Z,6.17
2017-10-30T02:22:50.455Z,6.05
2017-10-30T02:23:50.423Z,6.12
2017-10-30T02:24:50.417Z,6.11
2017-10-30T02:25:50.413Z,6.04
2017-10-30T02:26:50.405Z,6.09
2017-10-30T02:27:50.399Z,6.08
2017-10-30T02:28:50.393Z,6.04
2017-10-30T02:29:50.386Z,6.16
2017-10-30T02:30:50.379Z,6.16
2017-10-30T02:31:50.375Z,6.09
2017-10-30T02:32:50.366Z,5.98
2017-10-30T02:33:50.360Z,5.93
2017-10-30T02:34:50.354Z,5.90
2017-10-30T02:35:50.347Z,5.91
2017-10-30T02:36:50.342Z,6.02
2017-10-30T02:37:50.336Z,6.02
2017-10-30T02:38:50.329Z,5.98
2017-10-30T02:39:50.322Z,5.90
2017-10-30T02:40:50.318Z,5.99
2017-10-30T02:41:50.310Z,5.83
2017-10-30T02:42:50.304Z,5.90
2017-10-30T02:43:50.299Z,5.94
2017-10-30T02:44:50.292Z,5.90
2017-10-30T02:45:50.284Z,5.86
2017-10-30T02:46:50.279Z,5.97
2017-10-30T02:47:50.272Z,5.94
2017-10-30T02:48:50.265Z,6.01
2017-10-30T02:49:50.259Z,6.01
2017-10-30T02:50:50.253Z,5.98
2017-10-30T02:51:50.247Z,6.07
2017-10-30T02:52:50.241Z,5.97
2017-10-30T02:53:50.234Z,5.97
2017-10-30T02:54:50.229Z,5.93
2017-10-30T02:55:50.222Z,5.97
2017-10-30T02:56:50.215Z,6.02
2017-10-30T02:57:50.208Z,5.99
2017-10-30T02:58:50.203Z,6.01
2017-10-30T02:59:50.197Z,6.01
2017-10-30T03:00:50.190Z,6.05
2017-10-30T03:01:50.184Z,5.98
2017-10-30T03:02:50.187Z,6.05
2017-10-30T03:03:50.172Z,6.02
2017-10-30T03:04:50.166Z,6.04
2017-10-30T03:05:50.159Z,6.17
2017-10-30T03:06:50.153Z,6.11
2017-10-30T03:07:50.153Z,6.14
2017-10-30T03:08:50.140Z,6.26
2017-10-30T03:09:50.133Z,6.24
2017-10-30T03:10:50.128Z,6.17
2017-10-30T03:11:50.122Z,6.27
2017-10-30T03:12:50.113Z,6.35
2017-10-30T03:13:50.109Z,6.26
2017-10-30T03:14:50.102Z,6.36
2017-10-30T03:15:50.096Z,6.28
2017-10-30T03:16:50.089Z,6.26
2017-10-30T03:17:50.083Z,6.33
2017-10-30T03:18:50.077Z,6.30
2017-10-30T03:19:50.070Z,6.38
2017-10-30T03:20:50.063Z,6.35
2017-10-30T03:21:50.057Z,6.38
2017-10-30T03:22:50.050Z,6.27
2017-10-30T03:23:50.045Z,6.28
2017-10-30T03:24:50.039Z,6.28
2017-10-30T03:25:50.039Z,6.17
2017-10-30T03:26:50.026Z,6.20
2017-10-30T03:27:50.020Z,6.26
2017-10-30T03:28:50.014Z,6.39
2017-10-30T03:29:50.008Z,6.46
2017-10-30T03:30:50.002Z,6.49
2017-10-30T03:31:50.003Z,6.38
2017-10-30T03:32:49.989Z,6.45
2017-10-30T03:33:49.982Z,6.35
2017-10-30T03:34:49.977Z,6.36
2017-10-30T03:35:49.969Z,6.36
2017-10-30T03:36:49.964Z,6.45
2017-10-30T03:37:49.958Z,6.36
2017-10-30T03:38:49.950Z,6.33
2017-10-30T03:39:49.945Z,6.35
2017-10-30T03:40:49.939Z,6.35
2017-10-30T03:41:49.932Z,6.26
2017-10-30T03:42:49.926Z,6.24
2017-10-30T03:43:49.920Z,6.24
2017-10-30T03:44:49.912Z,6.28
2017-10-30T03:45:49.908Z,6.26
2017-10-30T03:46:49.901Z,6.17
2017-10-30T03:47:49.894Z,6.17
2017-10-30T03:48:49.887Z,6.20
2017-10-30T03:49:49.882Z,6.17
2017-10-30T03:50:49.875Z,6.16
2017-10-30T03:51:49.868Z,6.19
2017-10-30T03:52:49.863Z,6.19
2017-10-30T03:53:49.857Z,6.14
2017-10-30T03:54:49.851Z,6.12
2017-10-30T03:55:49.843Z,6.11
2017-10-30T03:56:49.838Z,6.16
2017-10-30T03:57:49.830Z,6.16
2017-10-30T03:58:49.828Z,6.14
2017-10-30T03:59:49.819Z,6.14
2017-10-30T04:00:49.811Z,6.09
2017-10-30T04:01:49.806Z,6.09
2017-10-30T04:02:49.802Z,6.16
2017-10-30T04:03:49.793Z,6.16
2017-10-30T04:04:49.790Z,6.16
2017-10-30T04:05:49.780Z,6.16
2017-10-30T04:06:49.776Z,6.04
2017-10-30T04:07:49.767Z,6.02
2017-10-30T04:08:49.761Z,6.01
2017-10-30T04:09:49.754Z,6.04
2017-10-30T04:10:49.748Z,6.01
2017-10-30T04:11:49.743Z,5.97
2017-10-30T04:12:49.735Z,5.99
2017-10-30T04:13:49.729Z,6.02
2017-10-30T04:14:49.723Z,5.90
2017-10-30T04:15:49.718Z,6.04
2017-10-30T04:16:49.709Z,5.99
2017-10-30T04:17:49.703Z,5.97
2017-10-30T04:18:49.698Z,6.09
2017-10-30T04:19:49.690Z,5.97
2017-10-30T04:20:49.684Z,5.98
2017-10-30T04:21:49.678Z,5.94
2017-10-30T04:22:49.672Z,6.05
2017-10-30T04:23:49.665Z,6.02
2017-10-30T04:24:49.659Z,6.01
2017-10-30T04:25:49.653Z,6.04
2017-10-30T04:26:49.647Z,6.04
2017-10-30T04:27:49.640Z,6.16
2017-10-30T04:28:49.634Z,6.07
2017-10-30T04:29:49.627Z,6.04
2017-10-30T04:30:49.621Z,6.01
2017-10-30T04:31:49.616Z,5.99
2017-10-30T04:32:49.607Z,6.04
2017-10-30T04:33:49.601Z,5.93
2017-10-30T04:34:49.598Z,5.94
2017-10-30T04:35:49.588Z,6.02
2017-10-30T04:36:49.583Z,6.01
2017-10-30T04:37:49.576Z,6.11
2017-10-30T04:38:49.570Z,6.14
2017-10-30T04:39:49.563Z,6.09
2017-10-30T04:40:49.557Z,6.08
2017-10-30T04:41:49.551Z,6.16
2017-10-30T04:42:49.544Z,6.19
2017-10-30T04:43:49.538Z,6.19
2017-10-30T04:44:49.533Z,6.24
2017-10-30T04:45:49.525Z,6.19
2017-10-30T04:46:49.519Z,6.24
2017-10-30T04:47:49.512Z,6.22
2017-10-30T04:48:49.506Z,6.27
2017-10-30T04:49:49.499Z,6.19
2017-10-30T04:50:49.494Z,6.19
2017-10-30T04:51:49.488Z,6.17
2017-10-30T04:52:49.480Z,6.20
2017-10-30T04:53:49.473Z,6.28
2017-10-30T04:54:49.467Z,6.24
2017-10-30T04:55:49.463Z,6.28
2017-10-30T04:56:49.454Z,6.24
2017-10-30T04:57:49.450Z,6.22
2017-10-30T04:58:49.442Z,6.16
2017-10-30T04:59:49.437Z,6.24
2017-10-30T05:00:49.430Z,6.33
2017-10-30T05:01:49.423Z,6.12
2017-10-30T05:02:49.418Z,6.28
2017-10-30T05:03:49.411Z,6.28
2017-10-30T05:04:49.406Z,6.27
2017-10-30T05:05:49.398Z,6.28
2017-10-30T05:06:49.394Z,6.27
2017-10-30T05:07:49.388Z,6.17
2017-10-30T05:08:49.381Z,6.28
2017-10-30T05:09:49.373Z,6.11
2017-10-30T05:10:49.368Z,6.14
2017-10-30T05:11:49.362Z,6.05
2017-10-30T05:12:49.355Z,6.07
2017-10-30T05:13:49.348Z,6.01
2017-10-30T05:14:49.344Z,6.08
2017-10-30T05:15:49.336Z,6.04
2017-10-30T05:16:49.332Z,6.05
2017-10-30T05:17:49.324Z,5.99
2017-10-30T05:18:49.323Z,6.04
2017-10-30T05:19:49.311Z,6.12
2017-10-30T05:20:49.304Z,6.07
2017-10-30T05:21:49.298Z,6.16
2017-10-30T05:22:49.293Z,6.11
2017-10-30T05:23:49.286Z,6.11
2017-10-30T05:24:49.279Z,6.16
2017-10-30T05:25:49.277Z,6.28
2017-10-30T05:26:49.267Z,6.22
2017-10-30T05:27:49.261Z,6.20
2017-10-30T05:28:49.254Z,6.17
2017-10-30T05:29:49.248Z,6.16
2017-10-30T05:30:49.242Z,6.22
2017-10-30T05:31:49.240Z,6.26
2017-10-30T05:32:49.229Z,6.26
2017-10-30T05:33:49.222Z,6.22
2017-10-30T05:34:49.216Z,6.26
2017-10-30T05:35:49.210Z,6.19
2017-10-30T05:36:49.203Z,6.27
2017-10-30T05:37:49.196Z,6.30
2017-10-30T05:38:49.191Z,6.31
2017-10-30T05:39:49.184Z,6.35
2017-10-30T05:40:49.179Z,6.42
2017-10-30T05:41:49.171Z,6.33
2017-10-30T05:42:49.167Z,6.42
2017-10-30T05:43:49.160Z,6.46
2017-10-30T05:44:49.153Z,6.45
2017-10-30T05:45:49.147Z,6.49
2017-10-30T05:46:49.141Z,6.41
2017-10-30T05:47:49.135Z,6.36
2017-10-30T05:48:49.157Z,6.41
2017-10-30T05:49:49.121Z,6.38
2017-10-30T05:50:49.115Z,6.38
2017-10-30T05:51:49.109Z,6.36
2017-10-30T05:52:49.104Z,6.41
2017-10-30T05:53:49.098Z,6.36
2017-10-30T05:54:49.091Z,6.31
2017-10-30T05:55:49.086Z,6.30
2017-10-30T05:56:49.079Z,6.26
2017-10-30T05:57:49.072Z,6.20
2017-10-30T05:58:49.067Z,6.16
2017-10-30T05:59:49.061Z,6.14
2017-10-30T06:00:49.054Z,6.17
2017-10-30T06:01:49.048Z,6.14
2017-10-30T06:02:49.043Z,6.12
2017-10-30T06:03:49.035Z,6.07
2017-10-30T06:04:49.029Z,6.04
2017-10-30T06:05:49.022Z,5.99
2017-10-30T06:06:49.018Z,5.99
2017-10-30T06:07:49.011Z,5.99
2017-10-30T06:08:49.003Z,5.94
2017-10-30T06:09:48.997Z,5.87
2017-10-30T06:10:48.992Z,5.90
2017-10-30T06:11:48.985Z,5.90
2017-10-30T06:12:48.977Z,5.84
2017-10-30T06:13:48.972Z,5.82
2017-10-30T06:14:48.965Z,5.86
2017-10-30T06:15:48.959Z,5.93
2017-10-30T06:16:48.953Z,5.89
2017-10-30T06:17:48.946Z,5.91
2017-10-30T06:18:48.940Z,5.87
2017-10-30T06:19:48.935Z,5.94
2017-10-30T06:20:48.927Z,5.94
2017-10-30T06:21:48.921Z,5.94
2017-10-30T06:22:48.915Z,5.99
2017-10-30T06:23:48.912Z,6.04
2017-10-30T06:24:48.903Z,6.08
2017-10-30T06:25:48.896Z,5.98
2017-10-30T06:26:48.891Z,6.07
2017-10-30T06:27:48.887Z,5.94
2017-10-30T06:28:48.876Z,6.01
2017-10-30T06:29:48.871Z,6.08
2017-10-30T06:30:48.866Z,6.16
2017-10-30T06:31:48.859Z,6.19
2017-10-30T06:32:48.851Z,6.16
2017-10-30T06:33:48.846Z,6.16
2017-10-30T06:34:48.838Z,6.16
2017-10-30T06:35:48.833Z,6.16
2017-10-30T06:36:48.825Z,6.20
2017-10-30T06:37:48.821Z,6.17
2017-10-30T06:38:48.814Z,6.17
2017-10-30T06:39:48.808Z,6.26
2017-10-30T06:40:48.814Z,6.20
2017-10-30T06:41:48.795Z,6.20
2017-10-30T06:42:48.788Z,6.16
2017-10-30T06:43:48.782Z,6.19
2017-10-30T06:44:48.774Z,6.19
2017-10-30T06:45:48.770Z,6.27
2017-10-30T06:46:48.764Z,6.24
2017-10-30T06:47:48.758Z,6.19
2017-10-30T06:48:48.750Z,6.26
2017-10-30T06:49:48.745Z,6.20
2017-10-30T06:50:48.739Z,6.16
2017-10-30T06:51:48.732Z,6.22
2017-10-30T06:52:48.725Z,6.27
2017-10-30T06:53:48.720Z,6.22
2017-10-30T06:54:48.714Z,6.22
2017-10-30T06:55:48.709Z,6.28
2017-10-30T06:56:48.700Z,6.30
2017-10-30T06:57:48.695Z,6.41
2017-10-30T06:58:48.690Z,6.27
2017-10-30T06:59:48.685Z,6.24
2017-10-30T07:00:48.676Z,6.35
2017-10-30T07:01:48.672Z,6.36
2017-10-30T07:02:48.666Z,6.45
2017-10-30T07:03:48.660Z,6.48
2017-10-30T07:04:48.658Z,6.48
2017-10-30T07:05:48.655Z,6.60
2017-10-30T07:06:48.641Z,6.54
2017-10-30T07:07:48.635Z,6.56
2017-10-30T07:08:48.631Z,6.63
2017-10-30T07:09:48.623Z,6.56
2017-10-30T07:10:48.616Z,6.59
2017-10-30T07:11:48.612Z,6.60
2017-10-30T07:12:48.604Z,6.59
2017-10-30T07:13:48.598Z,6.59
2017-10-30T07:14:48.594Z,6.52
2017-10-30T07:15:48.586Z,6.63
2017-10-30T07:16:48.581Z,6.60
2017-10-30T07:17:48.574Z,6.56
2017-10-30T07:18:48.569Z,6.56
2017-10-30T07:19:48.568Z,6.63
2017-10-30T07:20:48.557Z,6.67
2017-10-30T07:21:48.550Z,6.70
2017-10-30T07:22:48.545Z,6.67
2017-10-30T07:23:48.539Z,6.64
2017-10-30T07:24:48.533Z,6.74
2017-10-30T07:25:48.531Z,6.70
2017-10-30T07:26:48.522Z,6.67
2017-10-30T07:27:48.518Z,6.77
2017-10-30T07:28:48.512Z,6.78
2017-10-30T07:29:48.506Z,6.77
2017-10-30T07:30:48.499Z,6.77
2017-10-30T07:31:48.497Z,6.84
2017-10-30T07:32:48.488Z,6.88
2017-10-30T07:33:48.482Z,6.82
2017-10-30T07:34:48.475Z,6.93
2017-10-30T07:35:48.471Z,6.92
2017-10-30T07:36:48.467Z,6.97
2017-10-30T07:37:48.457Z,7.06
2017-10-30T07:38:48.454Z,7.10
2017-10-30T07:39:48.446Z,7.07
2017-10-30T07:40:48.441Z,7.10
2017-10-30T07:41:48.436Z,7.07
2017-10-30T07:42:48.432Z,7.06
2017-10-30T07:43:48.425Z,7.20
2017-10-30T07:44:48.419Z,7.23
2017-10-30T07:45:48.414Z,7.28
2017-10-30T07:46:48.409Z,7.28
2017-10-30T07:47:48.404Z,7.28
2017-10-30T07:48:48.396Z,7.24
2017-10-30T07:49:48.391Z,7.29
2017-10-30T07:50:48.387Z,7.23
2017-10-30T07:51:48.380Z,7.21
2017-10-30T07:52:48.375Z,7.28
2017-10-30T07:53:48.369Z,7.28
2017-10-30T07:54:48.364Z,7.24
2017-10-30T07:55:48.359Z,7.42
2017-10-30T07:56:48.376Z,7.42
2017-10-30T07:57:48.348Z,7.54
2017-10-30T07:58:48.343Z,7.51
2017-10-30T07:59:48.341Z,7.56
2017-10-30T08:00:48.334Z,7.60
2017-10-30T08:01:48.326Z,7.69
2017-10-30T08:02:48.320Z,7.79
2017-10-30T08:03:48.315Z,7.80
2017-10-30T08:04:48.309Z,7.79
2017-10-30T08:05:48.304Z,7.75
2017-10-30T08:06:48.300Z,7.82
2017-10-30T08:07:48.295Z,7.91
2017-10-30T08:08:48.289Z,8.00
2017-10-30T08:09:48.283Z,8.06
2017-10-30T08:10:48.281Z,7.95
2017-10-30T08:11:48.272Z,8.03
2017-10-30T08:12:48.268Z,7.95
2017-10-30T08:13:48.262Z,8.01
2017-10-30T08:14:48.266Z,7.91
2017-10-30T08:15:48.252Z,7.82
2017-10-30T08:16:48.246Z,7.91
2017-10-30T08:17:48.241Z,8.00
2017-10-30T08:18:48.238Z,8.05
2017-10-30T08:19:48.231Z,8.10
2017-10-30T08:20:48.227Z,8.06
2017-10-30T08:21:48.223Z,8.13
2017-10-30T08:22:48.218Z,8.28
2017-10-30T08:23:48.213Z,8.26
2017-10-30T08:24:48.207Z,8.19
2017-10-30T08:25:48.201Z,8.31
2017-10-30T08:26:48.198Z,8.31
2017-10-30T08:27:48.193Z,8.48
2017-10-30T08:28:48.190Z,8.45
2017-10-30T08:29:48.184Z,8.45
2017-10-30T08:30:48.178Z,8.37
2017-10-30T08:31:48.174Z,8.48
2017-10-30T08:32:48.168Z,8.49
2017-10-30T08:33:48.164Z,8.60
2017-10-30T08:34:48.160Z,8.49
2017-10-30T08:35:48.154Z,8.41
2017-10-30T08:36:48.153Z,8.46
2017-10-30T08:37:48.145Z,8.41
2017-10-30T08:38:48.142Z,8.46
2017-10-30T08:39:48.137Z,8.45
2017-10-30T08:40:48.133Z,8.44
2017-10-30T08:41:48.131Z,8.49
2017-10-30T08:42:48.123Z,8.49
2017-10-30T08:43:48.120Z,8.64
2017-10-30T08:44:48.113Z,8.70
2017-10-30T08:45:48.109Z,8.60
2017-10-30T08:46:48.106Z,8.53
2017-10-30T08:47:48.103Z,8.63
2017-10-30T08:48:48.097Z,8.58
2017-10-30T08:49:48.092Z,8.53
2017-10-30T08:50:48.088Z,8.64
2017-10-30T08:51:48.084Z,8.46
2017-10-30T08:52:48.083Z,8.51
2017-10-30T08:53:48.075Z,8.49
2017-10-30T08:54:48.074Z,8.48
2017-10-30T08:55:48.066Z,8.49
2017-10-30T08:56:48.062Z,8.51
2017-10-30T08:57:48.057Z,8.63
2017-10-30T08:58:48.054Z,8.78
2017-10-30T08:59:48.051Z,8.92
2017-10-30T09:00:48.045Z,8.95
2017-10-30T09:01:48.044Z,9.00
2017-10-30T09:02:48.036Z,8.99
2017-10-30T09:03:48.031Z,9.14
2017-10-30T09:04:48.027Z,9.14
2017-10-30T09:05:48.024Z,9.19
2017-10-30T09:06:48.018Z,9.26
2017-10-30T09:07:48.015Z,9.39
2017-10-30T09:08:48.010Z,9.43
2017-10-30T09:09:48.006Z,9.39
2017-10-30T09:10:48.002Z,9.46
2017-10-30T09:11:47.999Z,9.46
2017-10-30T09:12:47.993Z,9.54
2017-10-30T09:13:47.992Z,9.47
2017-10-30T09:14:47.993Z,9.34
2017-10-30T09:15:47.984Z,9.26
2017-10-30T09:16:47.977Z,9.32
2017-10-30T09:17:47.975Z,9.41
2017-10-30T09:18:47.971Z,9.46
2017-10-30T09:19:47.967Z,9.37
2017-10-30T09:20:47.962Z,9.43
2017-10-30T09:21:47.964Z,9.51
2017-10-30T09:22:47.955Z,9.61
2017-10-30T09:23:47.952Z,9.64
2017-10-30T09:24:47.946Z,9.64
2017-10-30T09:25:47.944Z,9.56
2017-10-30T09:26:47.941Z,9.36
2017-10-30T09:27:47.936Z,9.43
2017-10-30T09:28:47.931Z,9.55
2017-10-30T09:29:47.927Z,9.50
2017-10-30T09:30:47.924Z,9.58
2017-10-30T09:31:47.926Z,9.69
2017-10-30T09:32:47.918Z,9.82
2017-10-30T09:33:47.913Z,9.94
2017-10-30T09:34:47.910Z,10.16
2017-10-30T09:35:47.906Z,10.31
2017-10-30T09:36:47.909Z,10.49
2017-10-30T09:37:47.900Z,10.54
2017-10-30T09:38:47.896Z,10.46
2017-10-30T09:39:47.891Z,10.51
2017-10-30T09:40:47.888Z,10.81
2017-10-30T09:41:47.889Z,11.19
2017-10-30T09:42:47.882Z,11.94
2017-10-30T09:43:47.880Z,12.62
2017-10-30T09:44:47.877Z,13.30
2017-10-30T09:45:47.876Z,13.60
2017-10-30T09:46:47.873Z,13.75
2017-10-30T09:47:47.871Z,14.12
2017-10-30T09:48:47.868Z,14.58
2017-10-30T09:49:47.868Z,14.12
2017-10-30T09:50:47.883Z,14.10
2017-10-30T09:51:47.867Z,14.15
2017-10-30T09:52:47.866Z,14.08
2017-10-30T09:53:47.865Z,14.77
2017-10-30T09:54:47.867Z,14.60
2017-10-30T09:55:47.869Z,14.08
2017-10-30T09:56:47.872Z,13.50
2017-10-30T09:57:47.871Z,12.85
2017-10-30T09:58:47.875Z,12.83
2017-10-30T09:59:47.874Z,12.31
2017-10-30T10:00:47.876Z,12.78
2017-10-30T10:01:47.879Z,14.43
2017-10-30T10:02:47.882Z,15.40
2017-10-30T10:03:47.884Z,15.88
2017-10-30T10:04:47.888Z,14.36
2017-10-30T10:05:47.888Z,13.33
2017-10-30T10:06:47.892Z,12.85
2017-10-30T10:07:47.894Z,12.82
2017-10-30T10:08:47.895Z,13.35
2017-10-30T10:09:47.901Z,13.54
2017-10-30T10:10:47.902Z,13.38
2017-10-30T10:11:47.904Z,12.82
2017-10-30T10:12:47.908Z,11.81
2017-10-30T10:13:47.910Z,11.99
2017-10-30T10:14:47.912Z,11.73
2017-10-30T10:15:47.916Z,11.25
2017-10-30T10:16:47.918Z,11.33
2017-10-30T10:17:47.920Z,11.45
2017-10-30T10:18:47.921Z,11.14
2017-10-30T10:19:47.925Z,11.11
2017-10-30T10:20:47.930Z,11.17
2017-10-30T10:21:47.928Z,10.94
2017-10-30T10:22:47.929Z,10.78
2017-10-30T10:23:47.930Z,10.76
2017-10-30T10:24:47.930Z,11.12
2017-10-30T10:25:47.932Z,11.12
2017-10-30T10:26:47.932Z,11.60
2017-10-30T10:27:47.934Z,11.66
2017-10-30T10:28:47.934Z,11.72
2017-10-30T10:29:47.934Z,12.27
2017-10-30T10:30:47.934Z,13.28
2017-10-30T10:31:47.935Z,13.30
2017-10-30T10:32:47.936Z,13.15
2017-10-30T10:33:47.936Z,12.31
2017-10-30T10:34:47.937Z,12.17
2017-10-30T10:35:47.938Z,12.43
2017-10-30T10:36:47.937Z,12.45
2017-10-30T10:37:47.939Z,12.21
2017-10-30T10:38:47.938Z,12.06
2017-10-30T10:39:47.940Z,11.81
2017-10-30T10:40:47.941Z,11.52
2017-10-30T10:41:47.940Z,11.37
2017-10-30T10:42:47.946Z,11.25
2017-10-30T10:43:47.942Z,11.12
2017-10-30T10:44:47.941Z,11.02
2017-10-30T10:45:47.942Z,11.07
2017-10-30T10:46:47.945Z,11.05
2017-10-30T10:47:47.944Z,11.02
2017-10-30T10:48:47.942Z,11.07
2017-10-30T10:49:47.944Z,11.07
2017-10-30T10:50:47.943Z,11.22
2017-10-30T10:51:47.944Z,11.51
2017-10-30T10:52:47.943Z,11.19
2017-10-30T10:53:47.942Z,11.25
2017-10-30T10:54:47.942Z,11.26
2017-10-30T10:55:47.940Z,11.04
2017-10-30T10:56:47.946Z,11.14
2017-10-30T10:57:47.940Z,11.12
2017-10-30T10:58:47.938Z,11.14
2017-10-30T10:59:47.938Z,11.11
2017-10-30T11:00:47.940Z,11.25
2017-10-30T11:01:47.936Z,11.37
2017-10-30T11:02:47.935Z,11.30
2017-10-30T11:03:47.935Z,11.15
2017-10-30T11:04:47.933Z,11.07
2017-10-30T11:05:47.932Z,10.86
2017-10-30T11:06:47.931Z,10.89
2017-10-30T11:07:47.931Z,10.92
2017-10-30T11:08:47.929Z,10.82
2017-10-30T11:09:47.928Z,10.99
2017-10-30T11:10:47.926Z,10.89
2017-10-30T11:11:47.929Z,11.04
2017-10-30T11:12:47.923Z,11.08
2017-10-30T11:13:47.934Z,11.15
2017-10-30T11:14:47.919Z,11.10
2017-10-30T11:15:47.920Z,11.08
2017-10-30T11:16:47.918Z,11.15
2017-10-30T11:17:47.915Z,11.02
2017-10-30T11:18:47.915Z,11.10
2017-10-30T11:19:47.916Z,11.11
2017-10-30T11:20:47.911Z,10.97
2017-10-30T11:21:47.908Z,10.99
2017-10-30T11:22:47.907Z,10.93
2017-10-30T11:23:47.906Z,11.04
2017-10-30T11:24:47.905Z,11.05
2017-10-30T11:25:47.901Z,11.14
2017-10-30T11:26:47.900Z,11.32
2017-10-30T11:27:47.910Z,11.48
2017-10-30T11:28:47.895Z,11.68
2017-10-30T11:29:47.895Z,11.69
2017-10-30T11:30:47.893Z,11.70
2017-10-30T11:31:47.891Z,12.00
2017-10-30T11:32:47.890Z,11.94
2017-10-30T11:33:47.895Z,12.12
2017-10-30T11:34:47.886Z,12.10
2017-10-30T11:35:47.884Z,12.22
2017-10-30T11:36:47.884Z,12.04
2017-10-30T11:37:47.880Z,11.90
2017-10-30T11:38:47.878Z,12.03
2017-10-30T11:39:47.879Z,11.75
2017-10-30T11:40:47.875Z,11.63
2017-10-30T11:41:47.873Z,11.30
2017-10-30T11:42:47.873Z,11.23
2017-10-30T11:43:47.872Z,11.04
2017-10-30T11:44:47.870Z,10.93
2017-10-30T11:45:47.869Z,10.94
2017-10-30T11:46:47.867Z,10.75
2017-10-30T11:47:47.865Z,10.63
2017-10-30T11:48:47.864Z,10.41
2017-10-30T11:49:47.862Z,10.37
2017-10-30T11:50:47.861Z,10.42
2017-10-30T11:51:47.860Z,10.37
2017-10-30T11:52:47.857Z,10.38
2017-10-30T11:53:47.861Z,10.30
2017-10-30T11:54:47.855Z,10.35
2017-10-30T11:55:47.851Z,10.34
2017-10-30T11:56:47.848Z,10.34
2017-10-30T11:57:47.846Z,10.38
2017-10-30T11:58:47.846Z,10.30
2017-10-30T11:59:47.845Z,10.23
2017-10-30T12:00:47.840Z,10.26
2017-10-30T12:01:47.838Z,10.25
2017-10-30T12:02:47.836Z,10.33
2017-10-30T12:03:47.835Z,10.38
2017-10-30T12:04:47.833Z,10.22
2017-10-30T12:05:47.829Z,10.23
2017-10-30T12:06:47.829Z,10.25
2017-10-30T12:07:47.826Z,10.28
2017-10-30T12:08:47.824Z,10.15
2017-10-30T12:09:47.823Z,10.15
2017-10-30T12:10:47.819Z,10.10
2017-10-30T12:11:47.818Z,10.19
2017-10-30T12:12:47.814Z,10.07
2017-10-30T12:13:47.811Z,10.09
2017-10-30T12:14:47.809Z,10.15
2017-10-30T12:15:47.808Z,10.17
2017-10-30T12:16:47.804Z,10.20
2017-10-30T12:17:47.802Z,10.25
2017-10-30T12:18:47.803Z,10.26
2017-10-30T12:19:47.799Z,10.28
2017-10-30T12:20:47.794Z,10.37
2017-10-30T12:21:47.791Z,10.31
2017-10-30T12:22:47.788Z,10.46
2017-10-30T12:23:47.787Z,10.46
2017-10-30T12:24:47.783Z,10.51
2017-10-30T12:25:47.781Z,10.38
2017-10-30T12:26:47.782Z,10.40
2017-10-30T12:27:47.777Z,10.31
2017-10-30T12:28:47.773Z,10.30
2017-10-30T12:29:47.774Z,10.40
2017-10-30T12:30:47.769Z,10.35
2017-10-30T12:31:47.767Z,10.44
2017-10-30T12:32:47.763Z,10.41
2017-10-30T12:33:47.761Z,10.49
2017-10-30T12:34:47.759Z,10.44
2017-10-30T12:35:47.757Z,10.38
2017-10-30T12:36:47.753Z,10.57
2017-10-30T12:37:47.751Z,10.46
2017-10-30T12:38:47.750Z,10.57
2017-10-30T12:39:47.746Z,10.54
2017-10-30T12:40:47.743Z,10.53
2017-10-30T12:41:47.740Z,10.53
2017-10-30T12:42:47.739Z,10.49
2017-10-30T12:43:47.737Z,10.44
2017-10-30T12:44:47.738Z,10.48
2017-10-30T12:45:47.731Z,10.38
2017-10-30T12:46:47.730Z,10.35
2017-10-30T12:47:47.733Z,10.38
2017-10-30T12:48:47.723Z,10.44
2017-10-30T12:49:47.721Z,10.41
2017-10-30T12:50:47.721Z,10.40
2017-10-30T12:51:47.716Z,10.44
2017-10-30T12:52:47.712Z,10.38
2017-10-30T12:53:47.711Z,10.61
2017-10-30T12:54:47.715Z,10.57
2017-10-30T12:55:47.707Z,10.68
2017-10-30T12:56:47.707Z,10.76
2017-10-30T12:57:47.701Z,10.76
2017-10-30T12:58:47.699Z,10.84
2017-10-30T12:59:47.696Z,10.78
2017-10-30T13:00:47.693Z,10.89
2017-10-30T13:01:47.689Z,10.71
2017-10-30T13:02:47.691Z,10.72
2017-10-30T13:03:47.686Z,10.78
2017-10-30T13:04:47.684Z,10.84
2017-10-30T13:05:47.681Z,10.75
2017-10-30T13:06:47.677Z,10.72
2017-10-30T13:07:47.678Z,10.86
2017-10-30T13:08:47.673Z,10.92
2017-10-30T13:09:47.669Z,10.94
2017-10-30T13:10:47.673Z,10.94
2017-10-30T13:11:47.667Z,10.92